sensor_id;sensor_type;location;lat;lon;timestamp;pressure;altitude;pressure_sealevel;temperature;humidity
10720;BME280;5411;58.386;15.560;2024-01-06T00:01:34;100619.22;;;-17.74;98.75
10720;BME280;5411;58.386;15.560;2024-01-06T00:04:07;100622.66;;;-17.75;97.13
10720;BME280;5411;58.386;15.560;2024-01-06T00:06:35;100620.13;;;-17.80;97.83
10720;BME280;5411;58.386;15.560;2024-01-06T00:09:05;100621.84;;;-17.80;97.69
10720;BME280;5411;58.386;15.560;2024-01-06T00:11:34;100618.47;;;-17.82;96.77
10720;BME280;5411;58.386;15.560;2024-01-06T00:14:03;100624.44;;;-17.83;96.76
10720;BME280;5411;58.386;15.560;2024-01-06T00:16:31;100623.59;;;-17.84;97.40
10720;BME280;5411;58.386;15.560;2024-01-06T00:19:00;100619.38;;;-17.85;97.48
10720;BME280;5411;58.386;15.560;2024-01-06T00:21:31;100620.22;;;-17.86;97.06
10720;BME280;5411;58.386;15.560;2024-01-06T00:23:59;100622.81;;;-17.87;97.22
10720;BME280;5411;58.386;15.560;2024-01-06T00:26:34;100633.03;;;-17.89;97.42
10720;BME280;5411;58.386;15.560;2024-01-06T00:29:02;100628.81;;;-17.91;96.47
10720;BME280;5411;58.386;15.560;2024-01-06T00:31:31;100634.78;;;-17.95;96.17
10720;BME280;5411;58.386;15.560;2024-01-06T00:34:00;100636.56;;;-17.97;95.84
10720;BME280;5411;58.386;15.560;2024-01-06T00:36:28;100639.97;;;-17.98;95.85
10720;BME280;5411;58.386;15.560;2024-01-06T00:38:56;100637.38;;;-17.97;96.73
10720;BME280;5411;58.386;15.560;2024-01-06T00:41:25;100645.84;;;-17.95;96.17
10720;BME280;5411;58.386;15.560;2024-01-06T00:43:54;100643.31;;;-17.96;95.93
10720;BME280;5411;58.386;15.560;2024-01-06T00:46:23;100649.25;;;-17.96;96.57
10720;BME280;5411;58.386;15.560;2024-01-06T00:48:52;100650.19;;;-17.98;95.89
10720;BME280;5411;58.386;15.560;2024-01-06T00:51:20;100656.06;;;-17.95;97.87
10720;BME280;5411;58.386;15.560;2024-01-06T00:53:49;100659.47;;;-17.96;97.33
10720;BME280;5411;58.386;15.560;2024-01-06T00:56:18;100649.31;;;-17.99;96.79
10720;BME280;5411;58.386;15.560;2024-01-06T00:58:46;100650.19;;;-18.01;96.45
10720;BME280;5411;58.386;15.560;2024-01-06T01:01:16;100654.47;;;-18.02;95.75
10720;BME280;5411;58.386;15.560;2024-01-06T01:03:45;100661.28;;;-18.04;96.58
10720;BME280;5411;58.386;15.560;2024-01-06T01:06:13;100658.75;;;-18.06;98.14
10720;BME280;5411;58.386;15.560;2024-01-06T01:08:42;100672.38;;;-18.07;98.61
10720;BME280;5411;58.386;15.560;2024-01-06T01:11:11;100673.22;;;-18.06;97.16
10720;BME280;5411;58.386;15.560;2024-01-06T01:13:39;100668.09;;;-18.06;96.59
10720;BME280;5411;58.386;15.560;2024-01-06T01:16:08;100673.22;;;-18.08;96.02
10720;BME280;5411;58.386;15.560;2024-01-06T01:18:38;100676.63;;;-18.07;95.40
10720;BME280;5411;58.386;15.560;2024-01-06T01:21:06;100672.38;;;-18.10;95.44
10720;BME280;5411;58.386;15.560;2024-01-06T01:23:35;100669.91;;;-18.13;94.90
10720;BME280;5411;58.386;15.560;2024-01-06T01:26:04;100672.50;;;-18.19;94.73
10720;BME280;5411;58.386;15.560;2024-01-06T01:28:33;100667.41;;;-18.22;94.84
10720;BME280;5411;58.386;15.560;2024-01-06T01:31:02;100672.59;;;-18.26;95.41
10720;BME280;5411;58.386;15.560;2024-01-06T01:33:31;100676.88;;;-18.28;94.72
10720;BME280;5411;58.386;15.560;2024-01-06T01:36:01;100678.59;;;-18.33;94.41
10720;BME280;5411;58.386;15.560;2024-01-06T01:38:29;100688.81;;;-18.35;94.13
10720;BME280;5411;58.386;15.560;2024-01-06T01:40:58;100680.34;;;-18.37;94.15
10720;BME280;5411;58.386;15.560;2024-01-06T01:43:26;100686.31;;;-18.38;93.71
10720;BME280;5411;58.386;15.560;2024-01-06T01:45:56;100691.44;;;-18.39;95.19
10720;BME280;5411;58.386;15.560;2024-01-06T01:48:25;100689.75;;;-18.40;94.66
10720;BME280;5411;58.386;15.560;2024-01-06T01:50:54;100687.22;;;-18.44;95.44
10720;BME280;5411;58.386;15.560;2024-01-06T01:53:24;100685.50;;;-18.45;96.16
10720;BME280;5411;58.386;15.560;2024-01-06T01:55:53;100689.78;;;-18.45;95.17
10720;BME280;5411;58.386;15.560;2024-01-06T01:58:22;100687.22;;;-18.45;94.62
10720;BME280;5411;58.386;15.560;2024-01-06T02:00:51;100685.53;;;-18.48;95.29
10720;BME280;5411;58.386;15.560;2024-01-06T02:03:20;100694.88;;;-18.47;96.19
10720;BME280;5411;58.386;15.560;2024-01-06T02:05:50;100693.19;;;-18.46;96.04
10720;BME280;5411;58.386;15.560;2024-01-06T02:08:19;100687.22;;;-18.45;95.79
10720;BME280;5411;58.386;15.560;2024-01-06T02:10:49;100688.91;;;-18.44;96.11
10720;BME280;5411;58.386;15.560;2024-01-06T02:13:17;100694.84;;;-18.42;96.00
10720;BME280;5411;58.386;15.560;2024-01-06T02:15:46;100700.81;;;-18.45;95.24
10720;BME280;5411;58.386;15.560;2024-01-06T02:18:14;100695.75;;;-18.48;94.77
10720;BME280;5411;58.386;15.560;2024-01-06T02:20:43;100702.59;;;-18.53;95.16
10720;BME280;5411;58.386;15.560;2024-01-06T02:23:13;100703.44;;;-18.52;95.71
10720;BME280;5411;58.386;15.560;2024-01-06T02:25:42;100703.44;;;-18.52;96.49
10720;BME280;5411;58.386;15.560;2024-01-06T02:28:10;100699.22;;;-18.53;96.00
10720;BME280;5411;58.386;15.560;2024-01-06T02:30:39;100703.47;;;-18.54;95.60
10720;BME280;5411;58.386;15.560;2024-01-06T02:33:08;100695.81;;;-18.55;94.87
10720;BME280;5411;58.386;15.560;2024-01-06T02:35:37;100716.22;;;-18.55;95.17
10720;BME280;5411;58.386;15.560;2024-01-06T02:38:06;100704.31;;;-18.56;94.65
10720;BME280;5411;58.386;15.560;2024-01-06T02:40:36;100705.22;;;-18.59;94.77
10720;BME280;5411;58.386;15.560;2024-01-06T02:43:05;100703.59;;;-18.66;93.87
10720;BME280;5411;58.386;15.560;2024-01-06T02:45:35;100703.63;;;-18.69;93.92
10720;BME280;5411;58.386;15.560;2024-01-06T02:48:04;100701.09;;;-18.72;94.08
10720;BME280;5411;58.386;15.560;2024-01-06T02:50:33;100700.22;;;-18.71;94.39
10720;BME280;5411;58.386;15.560;2024-01-06T02:53:01;100700.22;;;-18.68;94.35
10720;BME280;5411;58.386;15.560;2024-01-06T02:55:30;100702.75;;;-18.65;94.00
10720;BME280;5411;58.386;15.560;2024-01-06T02:58:00;100707.00;;;-18.64;94.04
10720;BME280;5411;58.386;15.560;2024-01-06T03:00:28;100702.75;;;-18.66;93.96
10720;BME280;5411;58.386;15.560;2024-01-06T03:02:56;100706.13;;;-18.64;94.02
10720;BME280;5411;58.386;15.560;2024-01-06T03:05:25;100715.44;;;-18.63;93.89
10720;BME280;5411;58.386;15.560;2024-01-06T03:07:53;100723.94;;;-18.61;93.86
10720;BME280;5411;58.386;15.560;2024-01-06T03:10:22;100720.56;;;-18.63;92.66
10720;BME280;5411;58.386;15.560;2024-01-06T03:12:50;100722.25;;;-18.61;92.86
10720;BME280;5411;58.386;15.560;2024-01-06T03:15:21;100719.69;;;-18.59;92.96
10720;BME280;5411;58.386;15.560;2024-01-06T03:17:49;100717.97;;;-18.59;92.55
10720;BME280;5411;58.386;15.560;2024-01-06T03:20:18;100721.38;;;-18.60;92.44
10720;BME280;5411;58.386;15.560;2024-01-06T03:22:46;100723.09;;;-18.63;91.96
10720;BME280;5411;58.386;15.560;2024-01-06T03:25:15;100719.78;;;-18.70;92.17
10720;BME280;5411;58.386;15.560;2024-01-06T03:27:43;100738.47;;;-18.71;91.22
10720;BME280;5411;58.386;15.560;2024-01-06T03:30:13;100732.53;;;-18.74;91.24
10720;BME280;5411;58.386;15.560;2024-01-06T03:32:43;100729.19;;;-18.80;91.11
10720;BME280;5411;58.386;15.560;2024-01-06T03:35:11;100741.97;;;-18.83;91.63
10720;BME280;5411;58.386;15.560;2024-01-06T03:37:39;100741.19;;;-18.91;90.67
10720;BME280;5411;58.386;15.560;2024-01-06T03:40:10;100740.34;;;-18.94;91.39
10720;BME280;5411;58.386;15.560;2024-01-06T03:42:38;100741.22;;;-18.98;91.30
10720;BME280;5411;58.386;15.560;2024-01-06T03:45:10;100737.81;;;-19.02;91.41
10720;BME280;5411;58.386;15.560;2024-01-06T03:47:39;100746.38;;;-19.06;91.78
10720;BME280;5411;58.386;15.560;2024-01-06T03:50:09;100739.56;;;-19.08;91.10
10720;BME280;5411;58.386;15.560;2024-01-06T03:52:41;100743.84;;;-19.13;91.78
10720;BME280;5411;58.386;15.560;2024-01-06T03:55:09;100740.50;;;-19.20;91.88
10720;BME280;5411;58.386;15.560;2024-01-06T03:57:37;100747.31;;;-19.25;91.42
10720;BME280;5411;58.386;15.560;2024-01-06T04:00:07;100748.16;;;-19.29;91.74
10720;BME280;5411;58.386;15.560;2024-01-06T04:02:35;100751.59;;;-19.33;91.75
10720;BME280;5411;58.386;15.560;2024-01-06T04:05:04;100739.72;;;-19.40;92.62
10720;BME280;5411;58.386;15.560;2024-01-06T04:07:35;100751.63;;;-19.42;92.74
10720;BME280;5411;58.386;15.560;2024-01-06T04:10:04;100752.50;;;-19.45;92.86
10720;BME280;5411;58.386;15.560;2024-01-06T04:12:32;100757.56;;;-19.42;93.96
10720;BME280;5411;58.386;15.560;2024-01-06T04:15:01;100757.56;;;-19.42;93.50
10720;BME280;5411;58.386;15.560;2024-01-06T04:17:29;100760.97;;;-19.40;93.22
10720;BME280;5411;58.386;15.560;2024-01-06T04:19:58;100763.50;;;-19.40;93.69
10720;BME280;5411;58.386;15.560;2024-01-06T04:22:26;100775.38;;;-19.40;93.41
10720;BME280;5411;58.386;15.560;2024-01-06T04:24:56;100783.03;;;-19.42;93.05
10720;BME280;5411;58.386;15.560;2024-01-06T04:27:24;100778.78;;;-19.43;93.39
10720;BME280;5411;58.386;15.560;2024-01-06T04:29:52;100784.72;;;-19.42;93.07
10720;BME280;5411;58.386;15.560;2024-01-06T04:32:21;100783.03;;;-19.43;92.31
10720;BME280;5411;58.386;15.560;2024-01-06T04:34:49;100787.31;;;-19.45;92.98
10720;BME280;5411;58.386;15.560;2024-01-06T04:37:18;100783.06;;;-19.46;93.71
10720;BME280;5411;58.386;15.560;2024-01-06T04:39:46;100792.41;;;-19.45;93.47
10720;BME280;5411;58.386;15.560;2024-01-06T04:42:16;100780.53;;;-19.46;92.23
10720;BME280;5411;58.386;15.560;2024-01-06T04:44:46;100782.25;;;-19.52;92.76
10720;BME280;5411;58.386;15.560;2024-01-06T04:47:15;100783.09;;;-19.54;91.87
10720;BME280;5411;58.386;15.560;2024-01-06T04:49:43;100783.16;;;-19.59;91.99
10720;BME280;5411;58.386;15.560;2024-01-06T04:52:12;100788.25;;;-19.59;92.20
10720;BME280;5411;58.386;15.560;2024-01-06T04:54:40;100790.78;;;-19.60;92.44
10720;BME280;5411;58.386;15.560;2024-01-06T04:57:08;100792.47;;;-19.61;92.68
10720;BME280;5411;58.386;15.560;2024-01-06T04:59:39;100789.09;;;-19.60;93.13
10720;BME280;5411;58.386;15.560;2024-01-06T05:02:08;100793.34;;;-19.60;94.58
10720;BME280;5411;58.386;15.560;2024-01-06T05:04:36;100797.56;;;-19.59;93.53
10720;BME280;5411;58.386;15.560;2024-01-06T05:07:04;100801.78;;;-19.55;94.81
10720;BME280;5411;58.386;15.560;2024-01-06T05:09:33;100806.88;;;-19.54;93.83
10720;BME280;5411;58.386;15.560;2024-01-06T05:12:01;100804.31;;;-19.52;93.33
10720;BME280;5411;58.386;15.560;2024-01-06T05:14:30;100807.72;;;-19.50;94.93
10720;BME280;5411;58.386;15.560;2024-01-06T05:17:00;100817.88;;;-19.47;94.85
10720;BME280;5411;58.386;15.560;2024-01-06T05:19:28;100822.09;;;-19.46;94.89
10720;BME280;5411;58.386;15.560;2024-01-06T05:21:58;100830.56;;;-19.41;94.21
10720;BME280;5411;58.386;15.560;2024-01-06T05:24:27;100839.91;;;-19.35;94.86
10720;BME280;5411;58.386;15.560;2024-01-06T05:26:55;100845.81;;;-19.30;93.43
10720;BME280;5411;58.386;15.560;2024-01-06T05:29:24;100845.81;;;-19.29;93.02
10720;BME280;5411;58.386;15.560;2024-01-06T05:31:53;100847.50;;;-19.29;92.37
10720;BME280;5411;58.386;15.560;2024-01-06T05:34:22;100849.19;;;-19.25;91.96
10720;BME280;5411;58.386;15.560;2024-01-06T05:36:51;100855.97;;;-19.21;91.58
10720;BME280;5411;58.386;15.560;2024-01-06T05:39:20;100859.38;;;-19.21;91.03
10720;BME280;5411;58.386;15.560;2024-01-06T05:41:48;100864.47;;;-19.21;91.77
10720;BME280;5411;58.386;15.560;2024-01-06T05:44:17;100866.19;;;-19.24;91.37
10720;BME280;5411;58.386;15.560;2024-01-06T05:46:45;100856.84;;;-19.28;90.66
10720;BME280;5411;58.386;15.560;2024-01-06T05:49:13;100860.28;;;-19.31;91.16
10720;BME280;5411;58.386;15.560;2024-01-06T05:51:46;100857.72;;;-19.34;90.90
10720;BME280;5411;58.386;15.560;2024-01-06T05:54:15;100862.81;;;-19.38;91.22
10720;BME280;5411;58.386;15.560;2024-01-06T05:56:43;100867.06;;;-19.40;91.28
10720;BME280;5411;58.386;15.560;2024-01-06T05:59:11;100867.94;;;-19.44;90.21
10720;BME280;5411;58.386;15.560;2024-01-06T06:01:41;100868.78;;;-19.47;90.01
10720;BME280;5411;58.386;15.560;2024-01-06T06:04:11;100871.34;;;-19.45;90.68
10720;BME280;5411;58.386;15.560;2024-01-06T06:06:39;100873.84;;;-19.42;90.74
10720;BME280;5411;58.386;15.560;2024-01-06T06:09:10;100873.00;;;-19.41;89.84
10720;BME280;5411;58.386;15.560;2024-01-06T06:11:39;100877.28;;;-19.46;90.31
10720;BME280;5411;58.386;15.560;2024-01-06T06:14:08;100879.88;;;-19.49;89.35
10720;BME280;5411;58.386;15.560;2024-01-06T06:16:36;100879.00;;;-19.56;89.29
10720;BME280;5411;58.386;15.560;2024-01-06T06:19:05;100875.66;;;-19.58;90.09
10720;BME280;5411;58.386;15.560;2024-01-06T06:21:35;100884.13;;;-19.61;89.57
10720;BME280;5411;58.386;15.560;2024-01-06T06:24:04;100884.97;;;-19.59;90.09
10720;BME280;5411;58.386;15.560;2024-01-06T06:26:34;100882.44;;;-19.60;89.30
10720;BME280;5411;58.386;15.560;2024-01-06T06:29:06;100889.22;;;-19.61;89.42
10720;BME280;5411;58.386;15.560;2024-01-06T06:31:35;100884.13;;;-19.64;88.91
10720;BME280;5411;58.386;15.560;2024-01-06T06:34:03;100890.91;;;-19.66;89.06
10720;BME280;5411;58.386;15.560;2024-01-06T06:36:35;100896.84;;;-19.68;89.96
10720;BME280;5411;58.386;15.560;2024-01-06T06:39:03;100897.69;;;-19.65;89.74
10720;BME280;5411;58.386;15.560;2024-01-06T06:41:33;100903.66;;;-19.63;89.19
10720;BME280;5411;58.386;15.560;2024-01-06T06:44:02;100894.31;;;-19.61;90.20
10720;BME280;5411;58.386;15.560;2024-01-06T06:46:31;100894.31;;;-19.59;89.31
10720;BME280;5411;58.386;15.560;2024-01-06T06:49:02;100901.06;;;-19.55;88.89
10720;BME280;5411;58.386;15.560;2024-01-06T06:51:31;100909.59;;;-19.58;88.94
10720;BME280;5411;58.386;15.560;2024-01-06T06:53:59;100907.88;;;-19.60;88.19
10720;BME280;5411;58.386;15.560;2024-01-06T06:56:29;100920.63;;;-19.62;88.91
10720;BME280;5411;58.386;15.560;2024-01-06T06:58:59;100912.13;;;-19.62;90.08
10720;BME280;5411;58.386;15.560;2024-01-06T07:01:28;100913.81;;;-19.61;89.56
10720;BME280;5411;58.386;15.560;2024-01-06T07:04:00;100921.44;;;-19.57;88.50
10720;BME280;5411;58.386;15.560;2024-01-06T07:06:29;100923.16;;;-19.57;88.58
10720;BME280;5411;58.386;15.560;2024-01-06T07:08:57;100924.88;;;-19.58;89.25
10720;BME280;5411;58.386;15.560;2024-01-06T07:11:26;100941.81;;;-19.55;88.67
10720;BME280;5411;58.386;15.560;2024-01-06T07:13:55;100939.25;;;-19.54;88.42
10720;BME280;5411;58.386;15.560;2024-01-06T07:16:25;100944.34;;;-19.57;88.31
10720;BME280;5411;58.386;15.560;2024-01-06T07:18:53;100949.44;;;-19.57;88.22
10720;BME280;5411;58.386;15.560;2024-01-06T07:21:22;100954.53;;;-19.55;89.33
10720;BME280;5411;58.386;15.560;2024-01-06T07:23:51;100959.63;;;-19.55;88.23
10720;BME280;5411;58.386;15.560;2024-01-06T07:26:20;100954.53;;;-19.57;89.36
10720;BME280;5411;58.386;15.560;2024-01-06T07:28:48;100962.19;;;-19.57;89.33
10720;BME280;5411;58.386;15.560;2024-01-06T07:31:16;100960.50;;;-19.59;90.18
10720;BME280;5411;58.386;15.560;2024-01-06T07:33:46;100967.28;;;-19.58;89.71
10720;BME280;5411;58.386;15.560;2024-01-06T07:36:15;100968.97;;;-19.56;90.58
10720;BME280;5411;58.386;15.560;2024-01-06T07:38:44;100971.53;;;-19.57;88.89
10720;BME280;5411;58.386;15.560;2024-01-06T07:41:13;100967.28;;;-19.60;89.77
10720;BME280;5411;58.386;15.560;2024-01-06T07:43:41;100970.69;;;-19.64;88.77
10720;BME280;5411;58.386;15.560;2024-01-06T07:46:10;100975.78;;;-19.64;89.83
10720;BME280;5411;58.386;15.560;2024-01-06T07:48:42;100976.63;;;-19.65;88.63
10720;BME280;5411;58.386;15.560;2024-01-06T07:51:12;100982.56;;;-19.66;89.77
10720;BME280;5411;58.386;15.560;2024-01-06T07:53:40;100981.69;;;-19.66;90.13
10720;BME280;5411;58.386;15.560;2024-01-06T07:56:09;100977.47;;;-19.66;89.82
10720;BME280;5411;58.386;15.560;2024-01-06T07:58:37;100980.88;;;-19.62;89.77
10720;BME280;5411;58.386;15.560;2024-01-06T08:01:06;100985.13;;;-19.60;89.30
10720;BME280;5411;58.386;15.560;2024-01-06T08:03:35;100984.25;;;-19.56;88.79
10720;BME280;5411;58.386;15.560;2024-01-06T08:06:03;100982.56;;;-19.54;88.61
10720;BME280;5411;58.386;15.560;2024-01-06T08:08:34;100987.66;;;-19.54;88.80
10720;BME280;5411;58.386;15.560;2024-01-06T08:11:03;100995.28;;;-19.49;89.76
10720;BME280;5411;58.386;15.560;2024-01-06T08:13:31;100997.78;;;-19.43;89.64
10720;BME280;5411;58.386;15.560;2024-01-06T08:16:00;101002.03;;;-19.36;88.54
10720;BME280;5411;58.386;15.560;2024-01-06T08:18:29;101006.28;;;-19.29;89.14
10720;BME280;5411;58.386;15.560;2024-01-06T08:20:59;101011.38;;;-19.20;89.55
10720;BME280;5411;58.386;15.560;2024-01-06T08:23:27;101023.25;;;-19.11;88.47
10720;BME280;5411;58.386;15.560;2024-01-06T08:25:58;101023.25;;;-19.06;88.75
10720;BME280;5411;58.386;15.560;2024-01-06T08:28:27;101026.63;;;-19.03;88.01
10720;BME280;5411;58.386;15.560;2024-01-06T08:30:56;101030.88;;;-19.02;87.87
10720;BME280;5411;58.386;15.560;2024-01-06T08:33:25;101041.91;;;-18.97;88.60
10720;BME280;5411;58.386;15.560;2024-01-06T08:35:54;101042.75;;;-18.87;89.04
10720;BME280;5411;58.386;15.560;2024-01-06T08:38:23;101046.16;;;-18.79;88.27
10720;BME280;5411;58.386;15.560;2024-01-06T08:40:51;101047.81;;;-18.70;88.54
10720;BME280;5411;58.386;15.560;2024-01-06T08:43:22;101050.34;;;-18.60;88.49
10720;BME280;5411;58.386;15.560;2024-01-06T08:45:50;101052.81;;;-18.49;88.41
10720;BME280;5411;58.386;15.560;2024-01-06T08:48:19;101059.63;;;-18.40;88.19
10720;BME280;5411;58.386;15.560;2024-01-06T08:50:48;101052.78;;;-18.34;88.37
10720;BME280;5411;58.386;15.560;2024-01-06T08:53:17;101062.13;;;-18.28;88.35
10720;BME280;5411;58.386;15.560;2024-01-06T08:55:46;101068.03;;;-18.22;88.92
10720;BME280;5411;58.386;15.560;2024-01-06T08:58:15;101068.03;;;-18.14;88.77
10720;BME280;5411;58.386;15.560;2024-01-06T09:00:46;101081.59;;;-18.04;88.48
10720;BME280;5411;58.386;15.560;2024-01-06T09:03:15;101077.28;;;-17.95;88.74
10720;BME280;5411;58.386;15.560;2024-01-06T09:05:45;101081.50;;;-17.86;88.37
10720;BME280;5411;58.386;15.560;2024-01-06T09:08:18;101078.03;;;-17.76;88.78
10720;BME280;5411;58.386;15.560;2024-01-06T09:10:47;101075.44;;;-17.67;89.00
10720;BME280;5411;58.386;15.560;2024-01-06T09:13:18;101070.97;;;-17.44;89.26
10720;BME280;5411;58.386;15.560;2024-01-06T09:15:50;101073.41;;;-17.24;89.05
10720;BME280;5411;58.386;15.560;2024-01-06T09:18:19;101073.28;;;-17.09;89.29
10720;BME280;5411;58.386;15.560;2024-01-06T09:20:48;101080.03;;;-16.99;88.73
10720;BME280;5411;58.386;15.560;2024-01-06T09:23:16;101077.38;;;-16.88;88.41
10720;BME280;5411;58.386;15.560;2024-01-06T09:25:51;101079.81;;;-16.76;87.44
10720;BME280;5411;58.386;15.560;2024-01-06T09:28:19;101081.38;;;-16.63;88.49
10720;BME280;5411;58.386;15.560;2024-01-06T09:30:50;101087.25;;;-16.51;87.25
10720;BME280;5411;58.386;15.560;2024-01-06T09:33:21;101079.53;;;-16.50;84.89
10720;BME280;5411;58.386;15.560;2024-01-06T09:35:50;101092.28;;;-16.47;86.28
10720;BME280;5411;58.386;15.560;2024-01-06T09:38:19;101087.16;;;-16.45;84.99
10720;BME280;5411;58.386;15.560;2024-01-06T09:40:48;101089.69;;;-16.42;84.77
10720;BME280;5411;58.386;15.560;2024-01-06T09:43:17;101094.78;;;-16.39;86.55
10720;BME280;5411;58.386;15.560;2024-01-06T09:45:51;101104.06;;;-16.29;87.22
10720;BME280;5411;58.386;15.560;2024-01-06T09:48:28;101111.63;;;-16.20;86.63
10720;BME280;5411;58.386;15.560;2024-01-06T09:51:02;101116.63;;;-16.11;89.16
10720;BME280;5411;58.386;15.560;2024-01-06T09:53:34;101108.84;;;-16.00;88.13
10720;BME280;5411;58.386;15.560;2024-01-06T09:56:05;101112.91;;;-15.84;89.79
10720;BME280;5411;58.386;15.560;2024-01-06T09:58:35;101113.66;;;-15.73;88.78
10720;BME280;5411;58.386;15.560;2024-01-06T10:01:06;101107.50;;;-15.61;89.51
10720;BME280;5411;58.386;15.560;2024-01-06T10:03:38;101112.44;;;-15.49;89.79
10720;BME280;5411;58.386;15.560;2024-01-06T10:06:06;101111.41;;;-15.37;88.38
10720;BME280;5411;58.386;15.560;2024-01-06T10:08:36;101113.00;;;-15.30;88.31
10720;BME280;5411;58.386;15.560;2024-01-06T10:11:07;101118.88;;;-15.22;87.51
10720;BME280;5411;58.386;15.560;2024-01-06T10:13:36;101127.31;;;-15.16;89.23
10720;BME280;5411;58.386;15.560;2024-01-06T10:16:07;101128.13;;;-15.12;87.44
10720;BME280;5411;58.386;15.560;2024-01-06T10:18:35;101126.28;;;-15.04;89.19
10720;BME280;5411;58.386;15.560;2024-01-06T10:21:05;101134.75;;;-14.97;89.49
10720;BME280;5411;58.386;15.560;2024-01-06T10:23:36;101130.44;;;-14.94;89.22
10720;BME280;5411;58.386;15.560;2024-01-06T10:26:05;101120.94;;;-14.90;89.80
10720;BME280;5411;58.386;15.560;2024-01-06T10:28:33;101129.47;;;-14.88;89.49
10720;BME280;5411;58.386;15.560;2024-01-06T10:31:02;101133.66;;;-14.81;91.27
10720;BME280;5411;58.386;15.560;2024-01-06T10:33:32;101130.97;;;-14.75;91.97
10720;BME280;5411;58.386;15.560;2024-01-06T10:36:01;101134.34;;;-14.71;90.96
10720;BME280;5411;58.386;15.560;2024-01-06T10:38:30;101142.88;;;-14.69;90.98
10720;BME280;5411;58.386;15.560;2024-01-06T10:41:02;101136.84;;;-14.67;91.18
10720;BME280;5411;58.386;15.560;2024-01-06T10:43:36;101144.41;;;-14.61;91.92
10720;BME280;5411;58.386;15.560;2024-01-06T10:46:08;101140.88;;;-14.52;93.17
10720;BME280;5411;58.386;15.560;2024-01-06T10:48:40;101134.69;;;-14.42;93.14
10720;BME280;5411;58.386;15.560;2024-01-06T10:51:12;101142.22;;;-14.34;93.19
10720;BME280;5411;58.386;15.560;2024-01-06T10:53:42;101129.25;;;-14.27;95.16
10720;BME280;5411;58.386;15.560;2024-01-06T10:56:11;101129.97;;;-14.20;94.60
10720;BME280;5411;58.386;15.560;2024-01-06T10:58:45;101132.41;;;-14.13;95.27
10720;BME280;5411;58.386;15.560;2024-01-06T11:01:16;101132.34;;;-14.10;93.44
10720;BME280;5411;58.386;15.560;2024-01-06T11:03:54;101142.56;;;-14.07;94.84
10720;BME280;5411;58.386;15.560;2024-01-06T11:06:23;101135.72;;;-14.06;96.17
10720;BME280;5411;58.386;15.560;2024-01-06T11:08:57;101135.66;;;-14.03;96.62
10720;BME280;5411;58.386;15.560;2024-01-06T11:11:33;101142.44;;;-13.99;96.03
10720;BME280;5411;58.386;15.560;2024-01-06T11:14:17;101145.00;;;-13.99;95.58
10720;BME280;5411;58.386;15.560;2024-01-06T11:16:46;101148.44;;;-13.98;95.97
10720;BME280;5411;58.386;15.560;2024-01-06T11:19:43;101149.16;;;-13.93;96.03
10720;BME280;5411;58.386;15.560;2024-01-06T11:22:19;101149.03;;;-13.86;96.67
10720;BME280;5411;58.386;15.560;2024-01-06T11:24:49;101152.28;;;-13.78;97.85
10720;BME280;5411;58.386;15.560;2024-01-06T11:27:18;101143.56;;;-13.71;98.02
10720;BME280;5411;58.386;15.560;2024-01-06T11:29:47;101141.69;;;-13.61;97.34
10720;BME280;5411;58.386;15.560;2024-01-06T11:32:26;101143.22;;;-13.54;98.57
10720;BME280;5411;58.386;15.560;2024-01-06T11:35:05;101147.34;;;-13.45;98.06
10720;BME280;5411;58.386;15.560;2024-01-06T11:37:37;101144.63;;;-13.39;98.82
10720;BME280;5411;58.386;15.560;2024-01-06T11:40:09;101145.41;;;-13.36;98.39
10720;BME280;5411;58.386;15.560;2024-01-06T11:42:41;101149.63;;;-13.31;99.04
10720;BME280;5411;58.386;15.560;2024-01-06T11:45:10;101146.06;;;-13.26;97.98
10720;BME280;5411;58.386;15.560;2024-01-06T11:47:39;101148.50;;;-13.20;98.28
10720;BME280;5411;58.386;15.560;2024-01-06T11:50:10;101152.69;;;-13.16;98.01
10720;BME280;5411;58.386;15.560;2024-01-06T11:52:38;101149.13;;;-13.10;97.90
10720;BME280;5411;58.386;15.560;2024-01-06T11:55:08;101152.34;;;-13.02;97.43
10720;BME280;5411;58.386;15.560;2024-01-06T11:57:37;101166.81;;;-12.97;96.86
10720;BME280;5411;58.386;15.560;2024-01-06T12:00:06;101160.75;;;-12.94;96.87
10720;BME280;5411;58.386;15.560;2024-01-06T12:02:35;101158.84;;;-12.86;97.61
10720;BME280;5411;58.386;15.560;2024-01-06T12:05:04;101157.88;;;-12.80;98.31
10720;BME280;5411;58.386;15.560;2024-01-06T12:07:34;101159.38;;;-12.72;98.42
10720;BME280;5411;58.386;15.560;2024-01-06T12:10:05;101167.84;;;-12.67;97.79
10720;BME280;5411;58.386;15.560;2024-01-06T12:12:34;101172.03;;;-12.64;97.71
10720;BME280;5411;58.386;15.560;2024-01-06T12:15:04;101166.81;;;-12.61;98.13
10720;BME280;5411;58.386;15.560;2024-01-06T12:17:39;101169.38;;;-12.59;99.41
10720;BME280;5411;58.386;15.560;2024-01-06T12:20:09;101165.91;;;-12.58;100.00
10720;BME280;5411;58.386;15.560;2024-01-06T12:22:40;101166.75;;;-12.58;100.00
10720;BME280;5411;58.386;15.560;2024-01-06T12:25:14;101171.06;;;-12.58;100.00
10720;BME280;5411;58.386;15.560;2024-01-06T12:27:43;101171.94;;;-12.59;100.00
10720;BME280;5411;58.386;15.560;2024-01-06T12:30:13;101179.34;;;-12.46;100.00
10720;BME280;5411;58.386;15.560;2024-01-06T12:32:49;101180.78;;;-12.36;100.00
10720;BME280;5411;58.386;15.560;2024-01-06T12:35:20;101184.00;;;-12.26;100.00
10720;BME280;5411;58.386;15.560;2024-01-06T12:37:51;101191.47;;;-12.15;100.00
10720;BME280;5411;58.386;15.560;2024-01-06T12:40:23;101187.22;;;-12.18;100.00
10720;BME280;5411;58.386;15.560;2024-01-06T12:42:51;101189.88;;;-12.21;100.00
10720;BME280;5411;58.386;15.560;2024-01-06T12:45:19;101189.91;;;-12.22;100.00
10720;BME280;5411;58.386;15.560;2024-01-06T12:47:48;101192.59;;;-12.26;100.00
10720;BME280;5411;58.386;15.560;2024-01-06T12:50:18;101190.91;;;-12.27;100.00
10720;BME280;5411;58.386;15.560;2024-01-06T12:52:46;101196.03;;;-12.25;100.00